Decatur, Iowa
Current Conditions -  °F | °C
As of 12:53 AM on Monday 24 Nov 2014 (Local Time) from KLWD Reporting Station
Broken Clouds Broken Clouds  
Wind Chill: -6°   Ceiling: 2400
Heat Index:   Visibility: 10mi
Dew Point: -3°   Wind: 25mph
Humidity: 75%   Direction: 310°NW
Pressure: 29.41"   Gusts: 35mph
Location:  40.74°N, 93.84°W
Report Text: KLWD 240653Z AUTO 31022G30KT 10SM BKN024 BKN110 01/M03 A2941 RMK AO2 PK WND 32035/0611 SLP963 T00111028
Loading
Personal Weather Stations






























Interactive Weather Map New forecast layout! Learn more

10-Day Weather Forecast

Advertisements
Track Severe Weather on mobile